WetterOnline ( https://www.wetteronline.de )

Wetter aktuell Hoyerswerda

Aktuelles Wetter: Hoyerswerda (116m)

6-stündlich | Neueste Meldungen
Ortszeit Temperatur Wetter
Mo, 28.11. 19:00 3.9° C bedeckt
Mo, 28.11. 13:00 6.4° C bedeckt
Mo, 28.11. 7:00 1.7° C bedeckt
Mo, 28.11. 1:00 2.2° C bedeckt
So, 27.11. 19:00 2.9° C wolkenlos
So, 27.11. 13:00 9.5° C leicht bewölkt
So, 27.11. 7:00 0.6° C Nebel
So, 27.11. 1:00 5.6° C Nebel
Ortszeit Temperatur Wetter
Mo, 28.11. 23:30 3.7° C bedeckt
Mo, 28.11. 23:20 3.7° C bedeckt
Mo, 28.11. 23:10 3.7° C bedeckt
Mo, 28.11. 23:00 3.8° C bedeckt
Mo, 28.11. 22:50 3.8° C bedeckt
Mo, 28.11. 22:40 3.9° C bedeckt
Mo, 28.11. 22:30 4.0° C wolkig
Mo, 28.11. 22:00 4.0° C bewölkt
Mo, 28.11. 21:30 4.2° C bedeckt
Mo, 28.11. 21:00 4.2° C wolkig
Mo, 28.11. 20:30 4.2° C bedeckt
Ortszeit Relative Feuchte Sichtweite
Mo, 28.11. 19:00 82% 22 km
Mo, 28.11. 13:00 69% 30 km
Mo, 28.11. 7:00 87% 30 km
Mo, 28.11. 1:00 89% 22 km
So, 27.11. 19:00 89% 29 km
So, 27.11. 13:00 64% 40 km
So, 27.11. 7:00 99% 3.5 km
So, 27.11. 1:00 95% 13 km
Ortszeit Relative Feuchte Sichtweite
Mo, 28.11. 23:30 87% 20 km
Mo, 28.11. 23:20 87% -
Mo, 28.11. 23:10 87% -
Mo, 28.11. 23:00 86% 22 km
Mo, 28.11. 22:50 86% -
Mo, 28.11. 22:40 86% -
Mo, 28.11. 22:30 85% 22 km
Mo, 28.11. 22:00 85% 23 km
Mo, 28.11. 21:30 83% 23 km
Mo, 28.11. 21:00 83% 24 km
Mo, 28.11. 20:30 83% 22 km
Ortszeit Niederschlagsmenge Niederschlagsart
Mo, 28.11. 19:00 0.0 l/m2 in 12 Std. -
Mo, 28.11. 13:00 0.0 l/m2 in 6 Std. -
Mo, 28.11. 7:00 0.0 l/m2 in 12 Std. -
Mo, 28.11. 1:00 0.0 l/m2 in 6 Std. -
So, 27.11. 19:00 0.0 l/m2 in 12 Std. -
So, 27.11. 13:00 0.0 l/m2 in 6 Std. -
So, 27.11. 7:00 0.1 l/m2 in 12 Std. -
So, 27.11. 1:00 0.1 l/m2 in 6 Std. Regen
Ortszeit Niederschlagsmenge Niederschlagsart
Mo, 28.11. 23:30 0.0 l/m2 in 1 Std. -
Mo, 28.11. 23:20 keine Meldung -
Mo, 28.11. 23:10 keine Meldung -
Mo, 28.11. 23:00 0.0 l/m2 in 1 Std. -
Mo, 28.11. 22:50 keine Meldung -
Mo, 28.11. 22:40 keine Meldung -
Mo, 28.11. 22:30 0.0 l/m2 in 1 Std. -
Mo, 28.11. 22:00 0.0 l/m2 in 1 Std. -
Mo, 28.11. 21:30 0.0 l/m2 in 1 Std. -
Mo, 28.11. 21:00 0.0 l/m2 in 1 Std. -
Mo, 28.11. 20:30 0.0 l/m2 in 1 Std. -
Ortszeit Stärke Spitze Richtung
km/h Bft. km/h Grad Sektor
Mo, 28.11. 19:00 7 2 30 120° SO
Mo, 28.11. 13:00 14 3 29 150° SO
Mo, 28.11. 7:00 13 3 24 110° O
Mo, 28.11. 1:00 11 2 19 100° O
So, 27.11. 19:00 7 2 29 120° SO
So, 27.11. 13:00 7 2 14 170° S
So, 27.11. 7:00 2 1 17 240° SW
So, 27.11. 1:00 9 2 19 250° W
Ortszeit Stärke Spitze Richtung
km/h Bft. km/h Grad Sektor
Mo, 28.11. 23:30 7 2 11 100° O
Mo, 28.11. 23:20 7 2 - 100° O
Mo, 28.11. 23:10 7 2 - 100° O
Mo, 28.11. 23:00 6 1 13 110° O
Mo, 28.11. 22:50 6 1 - 110° O
Mo, 28.11. 22:40 7 2 - 110° O
Mo, 28.11. 22:30 9 2 13 100° O
Mo, 28.11. 22:00 9 2 11 100° O
Mo, 28.11. 21:30 7 2 11 100° O
Mo, 28.11. 21:00 7 2 14 110° O
Mo, 28.11. 20:30 9 2 15 110° O
Ortszeit Untergrenze Bedeckung Gattung
total tief tief mittel hoch
Mo, 28.11. 19:00 3300 m 8/8 8/8 - - -
Mo, 28.11. 13:00 3300 m 8/8 8/8 - - -
Mo, 28.11. 7:00 3300 m 8/8 8/8 - - -
Mo, 28.11. 1:00 5400 m 8/8 8/8 - - -
So, 27.11. 19:00 - 0/8 0/8 - - -
So, 27.11. 13:00 9000 m 3/8 0/8 - - -
So, 27.11. 7:00 1500 m 8/8 8/8 - - -
So, 27.11. 1:00 570 m 8/8 8/8 - - -
Ortszeit Bedeckungsgrad in Achtel und Wolkenuntergrenze
Mo, 28.11. 23:30 1(1500m) 8(2700m) 8(6000m)
Mo, 28.11. 23:20 1(1500m) 8(2700m) 8(6000m)
Mo, 28.11. 23:10 8
Mo, 28.11. 23:00 3(2100m) 8(2700m) 8(4500m)
Mo, 28.11. 22:50 3(2100m) 8(2700m) 8(4500m)
Mo, 28.11. 22:40 8
Mo, 28.11. 22:30 4(1800m) 7(3600m)
Mo, 28.11. 22:00 6(3000m) 7(3600m)
Mo, 28.11. 21:30 8(3000m)
Mo, 28.11. 21:00 2(1800m) 8(3300m)
Mo, 28.11. 20:30 8(3300m)
Ortszeit Luftdruck NN (hPa) Tendenz (hPa in 3 Std.)
Mo, 28.11. 19:00 1017 0,0
Mo, 28.11. 13:00 1017 - 0,8
Mo, 28.11. 7:00 1019 - 1,2
Mo, 28.11. 1:00 1022 - 1,4
So, 27.11. 19:00 1025 - 1,5
So, 27.11. 13:00 1028 - 1,3
So, 27.11. 7:00 1030 + 0,2
So, 27.11. 1:00 1031 + 0,1
Ortszeit Luftdruck NN (hPa) Tendenz (hPa in 3 Std.)
Mo, 28.11. 23:30 1017 + 0,4
Mo, 28.11. 23:20 1017 keine Meldung
Mo, 28.11. 23:10 1017 keine Meldung
Mo, 28.11. 23:00 1017 + 0,5
Mo, 28.11. 22:50 1017 keine Meldung
Mo, 28.11. 22:40 1017 keine Meldung
Mo, 28.11. 22:30 1017 + 0,3
Mo, 28.11. 22:00 1017 0,0
Mo, 28.11. 21:30 1017 0,0
Mo, 28.11. 21:00 1016 - 0,2
Mo, 28.11. 20:30 1016 - 0,5
Ortszeit Schneehöhe (cm)
Mo, 28.11. 19:00 0
Mo, 28.11. 13:00 0
Mo, 28.11. 7:00 0
Mo, 28.11. 1:00 0
So, 27.11. 19:00 0
So, 27.11. 13:00 0
So, 27.11. 7:00 0
So, 27.11. 1:00 0
Ortszeit Schneehöhe (cm)
Mo, 28.11. 23:30 0
Mo, 28.11. 23:20 0
Mo, 28.11. 23:10 0
Mo, 28.11. 23:00 0
Mo, 28.11. 22:50 0
Mo, 28.11. 22:40 0
Mo, 28.11. 22:30 0
Mo, 28.11. 22:00 0
Mo, 28.11. 21:30 0
Mo, 28.11. 21:00 0
Mo, 28.11. 20:30 0
Link zu dieser Seite / Seite empfehlen

Das Wetter in ...